Rolla, North Dakota
Current Conditions -  °F | °C
As of 1:35 AM on Sunday 23 Nov 2014 (Local Time) from K06D Reporting Station
Clear Clear  
Wind Chill: 18°   Ceiling: Unl
Heat Index: 27°   Visibility: 10mi
Dew Point: 27°   Wind: 8mph
Humidity: 100%   Direction: 160°SSE
Pressure: 29.27"   Gusts: NA
Location:  48.86°N, 99.62°W
Report Text: K06D 230735Z AUTO 16007KT 10SM CLR M03/M03 A2927 RMK AO2
Loading
Personal Weather Stations






























Interactive Weather Map New forecast layout! Learn more

10-Day Weather Forecast

Advertisements
Track Severe Weather on mobile